createdAt,value
2017-11-30T00:01:00.613Z,13.53
2017-11-30T00:03:29.928Z,12.90
2017-11-30T00:06:04.997Z,14.93
2017-11-30T00:08:34.023Z,13.83
2017-11-30T00:11:03.052Z,12.90
2017-11-30T00:13:39.499Z,14.23
2017-11-30T00:16:14.585Z,14.50
2017-11-30T00:18:43.665Z,13.50
2017-11-30T00:21:12.719Z,12.87
2017-11-30T00:23:41.762Z,13.73
2017-11-30T00:26:10.869Z,13.57
2017-11-30T00:28:53.897Z,13.70
2017-11-30T00:31:31.100Z,14.00
2017-11-30T00:34:00.183Z,14.33
2017-11-30T00:36:29.244Z,14.40
2017-11-30T00:38:58.320Z,14.70
2017-11-30T00:41:27.394Z,13.90
2017-11-30T00:43:56.462Z,15.10
2017-11-30T00:46:25.563Z,14.07
2017-11-30T00:48:55.692Z,14.90
2017-11-30T00:51:24.753Z,14.10
2017-11-30T00:53:53.804Z,14.30
2017-11-30T00:56:22.841Z,14.80
2017-11-30T00:58:51.914Z,13.37
2017-11-30T01:01:20.941Z,14.17
2017-11-30T01:03:49.978Z,13.43
2017-11-30T01:06:18.978Z,13.30
2017-11-30T01:08:54.446Z,13.80
2017-11-30T01:11:23.512Z,14.33
2017-11-30T01:14:07.667Z,13.60
2017-11-30T01:16:36.701Z,13.93
2017-11-30T01:19:09.452Z,13.30
2017-11-30T01:21:38.511Z,12.87
2017-11-30T01:24:07.560Z,13.00
2017-11-30T01:26:40.356Z,11.47
2017-11-30T01:29:09.854Z,12.40
2017-11-30T01:31:38.908Z,13.63
2017-11-30T01:34:07.943Z,12.20
2017-11-30T01:36:36.957Z,13.13
2017-11-30T01:39:06.000Z,13.30
2017-11-30T01:41:35.080Z,13.13
2017-11-30T01:44:04.110Z,13.40
2017-11-30T01:46:33.104Z,12.40
2017-11-30T01:49:09.440Z,12.03
2017-11-30T01:51:38.451Z,11.77
2017-11-30T01:54:07.556Z,12.00
2017-11-30T01:56:36.635Z,11.73
2017-11-30T01:59:13.909Z,11.60
2017-11-30T02:01:50.755Z,10.07
2017-11-30T02:04:19.846Z,10.10
2017-11-30T02:06:48.849Z,8.70
2017-11-30T02:09:17.844Z,8.90
2017-11-30T02:11:46.900Z,8.43
2017-11-30T02:14:16.003Z,8.80
2017-11-30T02:16:45.175Z,7.93
2017-11-30T02:19:14.259Z,7.87
2017-11-30T02:21:43.373Z,8.07
2017-11-30T02:24:12.968Z,7.07
2017-11-30T02:26:49.309Z,6.93
2017-11-30T02:29:18.445Z,6.70
2017-11-30T02:31:47.573Z,6.90
2017-11-30T02:34:16.604Z,7.00
2017-11-30T02:36:45.685Z,6.90
2017-11-30T02:39:14.721Z,6.77
2017-11-30T02:41:43.779Z,6.17
2017-11-30T02:44:12.833Z,6.20
2017-11-30T02:46:41.938Z,6.60
2017-11-30T02:49:11.045Z,5.90
2017-11-30T02:51:40.117Z,5.43
2017-11-30T02:54:10.584Z,5.17
2017-11-30T02:56:39.689Z,4.53
2017-11-30T02:59:08.789Z,4.73
2017-11-30T03:01:51.352Z,4.10
2017-11-30T03:04:21.019Z,4.73
2017-11-30T03:06:50.127Z,3.97
2017-11-30T03:09:19.186Z,4.07
2017-11-30T03:12:00.480Z,3.57
2017-11-30T03:14:29.549Z,4.00
2017-11-30T03:16:58.572Z,3.70
2017-11-30T03:19:27.657Z,3.23
2017-11-30T03:21:58.265Z,4.30
2017-11-30T03:24:27.560Z,3.70
2017-11-30T03:26:56.601Z,3.60
2017-11-30T03:29:25.658Z,3.33
2017-11-30T03:31:54.742Z,3.27
2017-11-30T03:34:23.837Z,3.70
2017-11-30T03:36:52.872Z,4.83
2017-11-30T03:39:21.896Z,3.73
2017-11-30T03:41:50.946Z,4.00
2017-11-30T03:44:20.144Z,4.43
2017-11-30T03:46:49.396Z,4.00
2017-11-30T03:49:21.537Z,4.50
2017-11-30T03:51:50.607Z,4.00
2017-11-30T03:54:19.814Z,3.70
2017-11-30T03:56:49.080Z,3.90
2017-11-30T03:59:18.180Z,5.20
2017-11-30T04:01:48.001Z,4.87
2017-11-30T04:04:17.263Z,4.73
2017-11-30T04:06:47.257Z,5.50
2017-11-30T04:09:16.309Z,4.73
2017-11-30T04:11:45.370Z,5.10
2017-11-30T04:14:14.524Z,4.83
2017-11-30T04:16:44.799Z,4.73
2017-11-30T04:19:14.488Z,4.93
2017-11-30T04:21:43.557Z,4.10
2017-11-30T04:24:13.763Z,5.00
2017-11-30T04:26:42.884Z,4.40
2017-11-30T04:29:12.789Z,5.50
2017-11-30T04:31:41.861Z,4.20
2017-11-30T04:34:11.053Z,4.57
2017-11-30T04:36:48.123Z,4.33
2017-11-30T04:39:20.872Z,3.53
2017-11-30T04:41:49.906Z,3.80
2017-11-30T04:44:18.972Z,4.43
2017-11-30T04:46:48.069Z,3.07
2017-11-30T04:49:24.424Z,3.80
2017-11-30T04:51:53.524Z,3.60
2017-11-30T04:54:22.625Z,3.47
2017-11-30T04:56:51.681Z,3.50
2017-11-30T04:59:20.786Z,3.67
2017-11-30T05:01:49.834Z,3.23
2017-11-30T05:04:20.289Z,3.23
2017-11-30T05:06:49.330Z,4.03
2017-11-30T05:09:18.344Z,4.00
2017-11-30T05:11:47.408Z,4.43
2017-11-30T05:14:17.219Z,4.13
2017-11-30T05:16:46.242Z,3.83
2017-11-30T05:19:28.461Z,4.27
2017-11-30T05:21:57.575Z,3.97
2017-11-30T05:24:33.989Z,3.57
2017-11-30T05:27:16.480Z,3.17
2017-11-30T05:29:45.492Z,4.00
2017-11-30T05:32:22.344Z,3.53
2017-11-30T05:34:51.463Z,3.40
2017-11-30T05:37:21.472Z,3.27
2017-11-30T05:39:50.494Z,3.20
2017-11-30T05:42:19.544Z,2.90
2017-11-30T05:44:48.556Z,3.33
2017-11-30T05:47:17.624Z,3.30
2017-11-30T05:49:46.644Z,2.87
2017-11-30T05:52:15.672Z,2.57
2017-11-30T05:54:53.346Z,2.83
2017-11-30T05:57:22.375Z,4.00
2017-11-30T05:59:51.449Z,3.67
2017-11-30T06:02:20.497Z,2.67
2017-11-30T06:04:49.520Z,2.33
2017-11-30T06:07:18.570Z,2.93
2017-11-30T06:09:55.997Z,2.50
2017-11-30T06:12:25.036Z,2.90
2017-11-30T06:14:54.093Z,2.30
2017-11-30T06:17:23.156Z,2.77
2017-11-30T06:19:52.186Z,2.30
2017-11-30T06:22:27.417Z,2.83
2017-11-30T06:24:56.505Z,2.40
2017-11-30T06:27:31.606Z,3.43
2017-11-30T06:30:08.264Z,2.13
2017-11-30T06:32:44.340Z,2.30
2017-11-30T06:35:13.363Z,2.20
2017-11-30T06:37:43.060Z,2.70
2017-11-30T06:40:12.108Z,2.80
2017-11-30T06:42:50.062Z,2.50
2017-11-30T06:45:19.155Z,2.70
2017-11-30T06:47:49.085Z,2.50
2017-11-30T06:50:18.224Z,3.00
2017-11-30T06:52:47.440Z,2.90
2017-11-30T06:55:16.473Z,2.43
2017-11-30T06:57:45.594Z,2.83
2017-11-30T07:00:15.316Z,3.17
2017-11-30T07:02:44.377Z,3.20
2017-11-30T07:05:13.426Z,2.70
2017-11-30T07:07:42.502Z,2.70
2017-11-30T07:10:11.528Z,2.93
2017-11-30T07:12:40.553Z,2.63
2017-11-30T07:15:09.621Z,2.70
2017-11-30T07:17:38.656Z,3.63
2017-11-30T07:20:07.686Z,3.83
2017-11-30T07:22:36.821Z,3.40
2017-11-30T07:25:06.261Z,2.60
2017-11-30T07:27:35.653Z,3.73
2017-11-30T07:30:04.757Z,3.40
2017-11-30T07:32:33.838Z,3.37
2017-11-30T07:35:03.082Z,3.43
2017-11-30T07:37:32.289Z,3.67
2017-11-30T07:40:01.412Z,3.77
2017-11-30T07:42:30.691Z,3.30
2017-11-30T07:44:59.905Z,2.93
2017-11-30T07:47:29.800Z,3.23
2017-11-30T07:49:58.806Z,3.40
2017-11-30T07:52:27.833Z,3.57
2017-11-30T07:54:56.900Z,4.07
2017-11-30T07:57:25.936Z,3.47
2017-11-30T07:59:54.952Z,3.47
2017-11-30T08:02:23.984Z,3.53
2017-11-30T08:04:53.065Z,3.60
2017-11-30T08:07:22.328Z,4.30
2017-11-30T08:09:51.367Z,2.80
2017-11-30T08:12:20.392Z,4.93
2017-11-30T08:14:49.786Z,4.77
2017-11-30T08:17:18.987Z,3.37
2017-11-30T08:19:48.041Z,2.97
2017-11-30T08:22:20.869Z,3.10
2017-11-30T08:24:49.999Z,3.00
2017-11-30T08:27:19.045Z,3.60
2017-11-30T08:29:48.112Z,2.97
2017-11-30T08:32:17.225Z,2.93
2017-11-30T08:34:46.333Z,2.60
2017-11-30T08:37:15.433Z,2.77
2017-11-30T08:39:44.732Z,2.60
2017-11-30T08:42:14.882Z,2.73
2017-11-30T08:44:44.065Z,2.97
2017-11-30T08:47:19.563Z,2.70
2017-11-30T08:49:56.186Z,2.80
2017-11-30T08:52:34.401Z,2.30
2017-11-30T08:55:03.521Z,2.70
2017-11-30T08:57:32.776Z,2.80
2017-11-30T09:00:01.928Z,2.80
2017-11-30T09:02:31.013Z,5.17
2017-11-30T09:05:00.597Z,3.60
2017-11-30T09:07:29.713Z,3.10
2017-11-30T09:10:12.580Z,2.60
2017-11-30T09:12:46.973Z,4.20
2017-11-30T09:15:16.230Z,3.10
2017-11-30T09:17:45.305Z,3.03
2017-11-30T09:20:14.376Z,2.43
2017-11-30T09:22:43.447Z,2.87
2017-11-30T09:25:12.478Z,3.03
2017-11-30T09:27:41.561Z,3.30
2017-11-30T09:30:10.576Z,3.87
2017-11-30T09:32:39.980Z,4.00
2017-11-30T09:35:09.725Z,5.23
2017-11-30T09:37:38.777Z,4.13
2017-11-30T09:40:07.793Z,3.00
2017-11-30T09:42:36.900Z,2.37
2017-11-30T09:45:05.952Z,1.73
2017-11-30T09:47:35.003Z,2.40
2017-11-30T09:50:04.065Z,5.67
2017-11-30T09:52:33.239Z,2.70
2017-11-30T09:55:02.304Z,2.00
2017-11-30T09:57:31.608Z,1.83
2017-11-30T10:00:00.660Z,2.20
2017-11-30T10:02:29.804Z,2.30
2017-11-30T10:04:58.877Z,1.93
2017-11-30T10:07:28.748Z,2.50
2017-11-30T10:09:57.780Z,2.27
2017-11-30T10:12:26.830Z,1.70
2017-11-30T10:14:55.896Z,2.20
2017-11-30T10:17:38.440Z,2.50
2017-11-30T10:20:07.505Z,2.53
2017-11-30T10:22:36.553Z,2.93
2017-11-30T10:25:05.819Z,2.10
2017-11-30T10:27:34.829Z,2.77
2017-11-30T10:30:04.717Z,3.90
2017-11-30T10:32:34.055Z,3.70
2017-11-30T10:35:03.282Z,2.30
2017-11-30T10:37:45.741Z,1.90
2017-11-30T10:40:14.827Z,2.30
2017-11-30T10:42:43.888Z,2.43
2017-11-30T10:45:13.124Z,2.50
2017-11-30T10:47:42.410Z,2.33
2017-11-30T10:50:11.440Z,2.23
2017-11-30T10:52:47.009Z,2.40
2017-11-30T10:55:22.019Z,2.80
2017-11-30T10:57:52.196Z,3.20
2017-11-30T11:00:21.264Z,4.53
2017-11-30T11:02:57.289Z,2.93
2017-11-30T11:05:32.301Z,2.93
2017-11-30T11:08:01.329Z,3.80
2017-11-30T11:10:30.694Z,3.83
2017-11-30T11:12:59.679Z,3.23
2017-11-30T11:15:34.840Z,2.70
2017-11-30T11:18:03.898Z,3.97
2017-11-30T11:20:33.299Z,2.90
2017-11-30T11:23:02.448Z,3.13
2017-11-30T11:25:39.254Z,3.47
2017-11-30T11:28:08.310Z,3.87
2017-11-30T11:30:37.341Z,4.30
2017-11-30T11:33:12.898Z,3.97
2017-11-30T11:35:48.251Z,4.27
2017-11-30T11:38:17.281Z,4.67
2017-11-30T11:40:46.325Z,4.17
2017-11-30T11:43:22.476Z,4.57
2017-11-30T11:45:51.504Z,3.30
2017-11-30T11:48:20.538Z,3.03
2017-11-30T11:50:49.600Z,3.17
2017-11-30T11:53:19.876Z,2.90
2017-11-30T11:55:49.156Z,2.50
2017-11-30T11:58:18.292Z,3.20
2017-11-30T12:00:47.353Z,2.33
2017-11-30T12:03:16.383Z,2.87
2017-11-30T12:05:56.545Z,3.00
2017-11-30T12:08:25.564Z,2.50
2017-11-30T12:10:54.772Z,2.20
2017-11-30T12:13:24.041Z,2.40
2017-11-30T12:15:53.356Z,2.73
2017-11-30T12:18:22.915Z,2.90
2017-11-30T12:20:51.929Z,2.60
2017-11-30T12:23:30.682Z,2.57
2017-11-30T12:26:00.887Z,2.43
2017-11-30T12:28:30.504Z,2.77
2017-11-30T12:30:59.745Z,1.90
2017-11-30T12:33:28.934Z,2.30
2017-11-30T12:35:58.072Z,2.47
2017-11-30T12:38:30.181Z,2.53
2017-11-30T12:40:59.241Z,2.47
2017-11-30T12:43:28.337Z,2.60
2017-11-30T12:45:57.964Z,2.73
2017-11-30T12:48:27.040Z,2.00
2017-11-30T12:50:56.083Z,2.40
2017-11-30T12:53:25.131Z,2.13
2017-11-30T12:55:54.249Z,2.10
2017-11-30T12:58:23.304Z,2.37
2017-11-30T13:00:52.450Z,3.20
2017-11-30T13:03:28.563Z,2.60
2017-11-30T13:05:58.235Z,1.97
2017-11-30T13:08:27.299Z,2.23
2017-11-30T13:10:56.357Z,1.67
2017-11-30T13:13:25.459Z,1.70
2017-11-30T13:15:56.815Z,1.90
2017-11-30T13:18:25.881Z,2.50
2017-11-30T13:21:01.992Z,1.93
2017-11-30T13:23:31.239Z,2.00
2017-11-30T13:26:02.229Z,1.80
2017-11-30T13:28:31.258Z,2.00
2017-11-30T13:31:00.284Z,1.70
2017-11-30T13:33:29.338Z,2.27
2017-11-30T13:35:58.442Z,1.80
2017-11-30T13:38:39.524Z,1.80
2017-11-30T13:41:08.552Z,3.10
2017-11-30T13:43:37.609Z,3.47
2017-11-30T13:46:06.651Z,2.27
2017-11-30T13:48:35.669Z,2.23
2017-11-30T13:51:04.854Z,2.20
2017-11-30T13:53:33.908Z,2.77
2017-11-30T13:56:02.951Z,3.43
2017-11-30T13:58:31.958Z,3.47
2017-11-30T14:01:01.002Z,3.23
2017-11-30T14:03:30.063Z,3.30
2017-11-30T14:05:59.091Z,3.23
2017-11-30T14:08:28.371Z,3.27
2017-11-30T14:10:57.460Z,3.50
2017-11-30T14:13:26.508Z,4.70
2017-11-30T14:15:55.760Z,4.70
2017-11-30T14:18:25.015Z,3.77
2017-11-30T14:20:54.034Z,3.30
2017-11-30T14:23:23.064Z,3.30
2017-11-30T14:25:58.992Z,3.73
2017-11-30T14:28:29.420Z,3.40
2017-11-30T14:30:58.478Z,3.13
2017-11-30T14:33:27.583Z,1.50
2017-11-30T14:35:56.590Z,1.67
2017-11-30T14:38:25.642Z,1.10
2017-11-30T14:40:54.703Z,2.53
2017-11-30T14:43:36.770Z,1.73
2017-11-30T14:46:05.796Z,1.50
2017-11-30T14:48:34.807Z,1.70
2017-11-30T14:51:17.315Z,1.20
2017-11-30T14:53:46.368Z,1.80
2017-11-30T14:56:15.379Z,0.80
2017-11-30T14:58:44.426Z,1.20
2017-11-30T15:01:13.425Z,3.50
2017-11-30T15:03:42.565Z,3.30
2017-11-30T15:06:11.820Z,1.10
2017-11-30T15:08:40.875Z,2.20
2017-11-30T15:11:09.959Z,1.50
2017-11-30T15:13:39.152Z,1.30
2017-11-30T15:16:08.191Z,1.93
2017-11-30T15:18:37.252Z,1.43
2017-11-30T15:21:12.947Z,2.40
2017-11-30T15:23:45.589Z,1.83
2017-11-30T15:26:14.621Z,1.60
2017-11-30T15:28:51.195Z,1.60
2017-11-30T15:31:20.266Z,2.03
2017-11-30T15:33:49.314Z,1.53
2017-11-30T15:36:18.939Z,1.60
2017-11-30T15:38:47.946Z,2.90
2017-11-30T15:41:16.995Z,1.80
2017-11-30T15:43:46.034Z,1.87
2017-11-30T15:46:16.651Z,3.53
2017-11-30T15:48:45.707Z,1.80
2017-11-30T15:51:14.830Z,1.70
2017-11-30T15:53:49.077Z,3.37
2017-11-30T15:56:18.147Z,1.73
2017-11-30T15:58:50.402Z,1.90
2017-11-30T16:01:26.079Z,2.10
2017-11-30T16:03:55.147Z,2.37
2017-11-30T16:06:24.196Z,1.90
2017-11-30T16:08:53.335Z,2.20
2017-11-30T16:11:22.650Z,2.97
2017-11-30T16:13:51.658Z,4.10
2017-11-30T16:16:20.686Z,3.00
2017-11-30T16:18:49.930Z,3.00
2017-11-30T16:21:19.073Z,3.80
2017-11-30T16:23:49.978Z,3.20
2017-11-30T16:26:20.404Z,3.27
2017-11-30T16:28:49.478Z,2.50
2017-11-30T16:31:18.734Z,2.70
2017-11-30T16:33:47.814Z,2.10
2017-11-30T16:36:16.923Z,2.40
2017-11-30T16:38:45.999Z,1.77
2017-11-30T16:41:15.137Z,1.90
2017-11-30T16:43:44.458Z,2.10
2017-11-30T16:46:16.787Z,1.87
2017-11-30T16:48:45.867Z,3.00
2017-11-30T16:51:15.179Z,1.77
2017-11-30T16:53:44.186Z,1.93
2017-11-30T16:56:23.472Z,1.90
2017-11-30T16:58:53.202Z,2.10
2017-11-30T17:01:22.419Z,2.43
2017-11-30T17:03:51.615Z,2.83
2017-11-30T17:06:20.650Z,2.07
2017-11-30T17:08:49.655Z,1.80
2017-11-30T17:11:25.759Z,1.60
2017-11-30T17:14:02.664Z,1.97
2017-11-30T17:16:37.935Z,2.00
2017-11-30T17:19:06.958Z,2.17
2017-11-30T17:21:35.983Z,1.70
2017-11-30T17:24:05.023Z,1.80
2017-11-30T17:26:34.271Z,2.10
2017-11-30T17:29:05.166Z,1.90
2017-11-30T17:31:34.842Z,2.00
2017-11-30T17:34:09.882Z,2.03
2017-11-30T17:36:38.947Z,1.80
2017-11-30T17:39:07.958Z,1.70
2017-11-30T17:41:37.007Z,2.07
2017-11-30T17:44:06.299Z,1.57
2017-11-30T17:46:35.308Z,1.53
2017-11-30T17:49:04.614Z,1.87
2017-11-30T17:51:33.653Z,2.10
2017-11-30T17:54:03.084Z,1.70
2017-11-30T17:56:32.182Z,1.43
2017-11-30T17:59:01.213Z,2.13
2017-11-30T18:01:37.368Z,3.67
2017-11-30T18:04:06.494Z,1.80
2017-11-30T18:06:35.604Z,1.70
2017-11-30T18:09:04.691Z,1.60
2017-11-30T18:11:34.828Z,1.77
2017-11-30T18:14:03.854Z,1.63
2017-11-30T18:16:32.842Z,1.60
2017-11-30T18:19:02.591Z,1.80
2017-11-30T18:21:31.659Z,2.00
2017-11-30T18:24:00.699Z,2.00
2017-11-30T18:26:29.750Z,1.50
2017-11-30T18:28:58.834Z,1.47
2017-11-30T18:31:27.914Z,2.00
2017-11-30T18:33:57.756Z,1.73
2017-11-30T18:36:39.612Z,1.87
2017-11-30T18:39:08.760Z,1.60
2017-11-30T18:41:37.972Z,1.80
2017-11-30T18:44:07.064Z,2.23
2017-11-30T18:46:36.171Z,1.90
2017-11-30T18:49:05.294Z,1.90
2017-11-30T18:51:34.426Z,1.87
2017-11-30T18:54:04.127Z,1.83
2017-11-30T18:56:33.235Z,1.50
2017-11-30T18:59:09.259Z,1.67
2017-11-30T19:01:38.317Z,2.10
2017-11-30T19:04:07.348Z,1.73
2017-11-30T19:06:37.102Z,1.73
2017-11-30T19:09:06.150Z,1.83
2017-11-30T19:11:35.190Z,2.67
2017-11-30T19:14:12.598Z,2.00
2017-11-30T19:16:51.172Z,1.90
2017-11-30T19:19:20.271Z,2.10
2017-11-30T19:21:49.296Z,1.67
2017-11-30T19:24:18.546Z,2.17
2017-11-30T19:26:48.174Z,2.17
2017-11-30T19:29:20.966Z,1.80
2017-11-30T19:31:58.039Z,1.97
2017-11-30T19:34:27.842Z,1.43
2017-11-30T19:36:57.324Z,1.60
2017-11-30T19:39:28.210Z,1.80
2017-11-30T19:42:04.716Z,2.13
2017-11-30T19:44:35.092Z,2.77
2017-11-30T19:47:05.109Z,1.83
2017-11-30T19:49:34.298Z,2.23
2017-11-30T19:52:04.250Z,2.33
2017-11-30T19:54:40.164Z,1.90
2017-11-30T19:57:10.899Z,1.40
2017-11-30T19:59:40.105Z,2.40
2017-11-30T20:02:13.470Z,2.63
2017-11-30T20:04:44.695Z,2.03
2017-11-30T20:07:23.404Z,2.20
2017-11-30T20:09:58.215Z,1.90
2017-11-30T20:15:35.387Z,1.80
2017-11-30T20:18:04.501Z,1.67
2017-11-30T20:20:33.518Z,1.83
2017-11-30T20:23:02.773Z,1.83
2017-11-30T20:25:41.445Z,1.60
2017-11-30T20:28:11.161Z,1.90
2017-11-30T20:30:46.361Z,1.60
2017-11-30T20:33:15.892Z,1.60
2017-11-30T20:35:45.175Z,1.67
2017-11-30T20:38:14.171Z,1.90
2017-11-30T20:40:43.198Z,1.53
2017-11-30T20:43:12.272Z,1.90
2017-11-30T20:45:41.357Z,1.80
2017-11-30T20:48:10.463Z,2.00
2017-11-30T20:50:39.501Z,3.10
2017-11-30T20:53:20.560Z,2.23
2017-11-30T20:55:49.657Z,1.90
2017-11-30T20:58:18.695Z,2.03
2017-11-30T21:00:47.743Z,2.00
2017-11-30T21:03:16.790Z,2.50
2017-11-30T21:05:52.122Z,1.63
2017-11-30T21:08:21.180Z,1.40
2017-11-30T21:10:50.304Z,2.80
2017-11-30T21:13:19.707Z,1.53
2017-11-30T21:15:48.798Z,1.60
2017-11-30T21:18:17.976Z,1.63
2017-11-30T21:20:47.069Z,1.43
2017-11-30T21:23:17.595Z,1.50
2017-11-30T21:25:46.602Z,1.40
2017-11-30T21:28:15.718Z,1.50
2017-11-30T21:30:44.747Z,2.00
2017-11-30T21:33:13.741Z,1.60
2017-11-30T21:35:42.762Z,1.70
2017-11-30T21:38:12.078Z,1.60
2017-11-30T21:40:41.085Z,1.30
2017-11-30T21:43:22.361Z,1.50
2017-11-30T21:45:51.394Z,1.53
2017-11-30T21:48:20.455Z,1.50
2017-11-30T21:50:49.483Z,1.30
2017-11-30T21:53:18.850Z,1.40
2017-11-30T21:55:48.039Z,1.40
2017-11-30T21:58:17.054Z,1.10
2017-11-30T22:00:46.127Z,1.53
2017-11-30T22:03:15.186Z,1.50
2017-11-30T22:05:44.517Z,1.20
2017-11-30T22:08:13.620Z,1.73
2017-11-30T22:10:42.698Z,1.40
2017-11-30T22:13:12.072Z,1.60
2017-11-30T22:15:41.819Z,1.67
2017-11-30T22:18:10.866Z,1.60
2017-11-30T22:20:40.269Z,1.43
2017-11-30T22:23:09.596Z,2.20
2017-11-30T22:25:38.995Z,2.10
2017-11-30T22:28:08.079Z,2.23
2017-11-30T22:30:37.322Z,1.53
2017-11-30T22:33:06.751Z,2.17
2017-11-30T22:35:35.793Z,2.07
2017-11-30T22:38:04.937Z,3.23
2017-11-30T22:40:34.223Z,2.20
2017-11-30T22:43:03.574Z,2.80
2017-11-30T22:45:32.876Z,2.00
2017-11-30T22:48:01.964Z,2.63
2017-11-30T22:50:31.007Z,1.77
2017-11-30T22:53:00.015Z,2.30
2017-11-30T22:55:29.078Z,2.00
2017-11-30T22:57:58.394Z,2.10
2017-11-30T23:00:33.234Z,2.37
2017-11-30T23:03:02.288Z,2.20
2017-11-30T23:05:38.598Z,1.63
2017-11-30T23:08:07.641Z,1.50
2017-11-30T23:10:36.725Z,1.63
2017-11-30T23:13:05.941Z,1.73
2017-11-30T23:15:35.171Z,1.30
2017-11-30T23:18:04.340Z,1.50
2017-11-30T23:20:33.428Z,1.40
2017-11-30T23:23:02.501Z,1.43
2017-11-30T23:25:31.590Z,3.13
2017-11-30T23:28:00.587Z,1.33
2017-11-30T23:30:29.614Z,2.03
2017-11-30T23:32:58.617Z,1.40
2017-11-30T23:35:27.663Z,1.67
2017-11-30T23:38:06.119Z,1.60
2017-11-30T23:40:35.154Z,1.20
2017-11-30T23:43:04.228Z,1.40
2017-11-30T23:45:33.302Z,1.30
2017-11-30T23:48:02.315Z,1.13
2017-11-30T23:50:37.387Z,1.23
2017-11-30T23:53:06.433Z,2.37
2017-11-30T23:55:36.830Z,2.10
2017-11-30T23:58:05.867Z,1.30
